Terminal Aerodrome Forecast
Issued by NWS

Home | Current Version | Previous Version | Text Only | Print | Product List | Glossary On
Versions: 1 2 3 4 5 6 7 8 9 10 11 12 13 14 15 16 17 18
000
FTUS41 KPBZ 230522
TAFLBE
TAF
KLBE 230522Z 2306/2406 21008KT P6SM OVC150
     FM230730 20008KT 5SM SHRA OVC025
     FM230830 20006KT 5SM -SHRA OVC015
     FM231200 21008KT 3SM -SHRA BR OVC010
     FM231700 23015G26KT 5SM SHRA VCTS OVC025CB
     FM240000 23013G23KT 3SM SHRA VCTS OVC015CB
     FM240500 24005KT 3SM SHRA VCSH OVC008=

USA.gov is the U.S. government's official web portal to all federal, state and local government web resources and services.